createdAt,value
2018-03-27T00:01:13.938Z,69.20
2018-03-27T00:03:40.169Z,69.10
2018-03-27T00:06:06.367Z,69.40
2018-03-27T00:08:32.614Z,69.80
2018-03-27T00:10:58.919Z,69.60
2018-03-27T00:13:25.125Z,69.10
2018-03-27T00:15:51.347Z,68.90
2018-03-27T00:18:17.594Z,69.10
2018-03-27T00:20:43.802Z,68.80
2018-03-27T00:23:09.994Z,68.70
2018-03-27T00:25:36.195Z,68.30
2018-03-27T00:28:14.565Z,68.00
2018-03-27T00:30:53.656Z,68.40
2018-03-27T00:33:32.023Z,68.30
2018-03-27T00:36:10.539Z,68.10
2018-03-27T00:38:49.029Z,68.40
2018-03-27T00:44:19.760Z,67.50
2018-03-27T00:46:45.992Z,67.60
2018-03-27T00:49:12.144Z,67.90
2018-03-27T00:51:39.147Z,69.40
2018-03-27T00:54:05.417Z,69.40
2018-03-27T00:56:31.608Z,69.30
2018-03-27T00:58:57.829Z,70.00
2018-03-27T01:01:24.072Z,70.20
2018-03-27T01:03:50.251Z,70.50
2018-03-27T01:06:18.549Z,70.50
2018-03-27T01:08:44.800Z,71.50
2018-03-27T01:11:11.053Z,72.80
2018-03-27T01:13:37.247Z,71.80
2018-03-27T01:16:03.545Z,71.70
2018-03-27T01:18:29.729Z,71.90
2018-03-27T01:20:55.900Z,71.40
2018-03-27T01:23:22.178Z,71.40
2018-03-27T01:25:48.388Z,71.20
2018-03-27T01:28:14.610Z,70.70
2018-03-27T01:30:40.862Z,70.00
2018-03-27T01:33:07.103Z,69.90
2018-03-27T01:35:34.052Z,68.70
2018-03-27T01:38:00.298Z,69.20
2018-03-27T01:40:26.524Z,69.10
2018-03-27T01:42:53.489Z,68.20
2018-03-27T01:45:19.689Z,68.10
2018-03-27T01:47:46.627Z,68.00
2018-03-27T01:50:12.800Z,68.00
2018-03-27T01:52:39.033Z,67.70
2018-03-27T01:55:05.274Z,67.60
2018-03-27T01:57:31.480Z,67.20
2018-03-27T01:59:57.717Z,66.90
2018-03-27T02:02:23.931Z,66.60
2018-03-27T02:04:50.129Z,67.00
2018-03-27T02:07:16.376Z,67.50
2018-03-27T02:09:42.637Z,67.70
2018-03-27T02:12:14.970Z,67.80
2018-03-27T02:14:47.424Z,67.70
2018-03-27T02:17:19.762Z,68.10
2018-03-27T02:19:52.232Z,67.90
2018-03-27T02:22:18.514Z,67.50
2018-03-27T02:24:44.756Z,67.20
2018-03-27T02:27:10.981Z,67.50
2018-03-27T02:29:37.214Z,67.00
2018-03-27T02:32:03.448Z,67.60
2018-03-27T02:34:29.837Z,67.20
2018-03-27T02:36:56.817Z,67.40
2018-03-27T02:39:23.046Z,67.30
2018-03-27T02:41:49.552Z,67.50
2018-03-27T02:44:15.804Z,67.30
2018-03-27T02:46:42.035Z,67.30
2018-03-27T02:49:08.418Z,67.90
2018-03-27T02:51:34.759Z,68.30
2018-03-27T02:54:01.034Z,67.80
2018-03-27T02:56:27.262Z,67.70
2018-03-27T02:58:53.509Z,67.80
2018-03-27T03:01:19.777Z,67.60
2018-03-27T03:03:46.807Z,67.20
2018-03-27T03:06:13.010Z,67.60
2018-03-27T03:08:39.281Z,67.50
2018-03-27T03:11:05.505Z,67.50
2018-03-27T03:13:31.689Z,67.10
2018-03-27T03:15:57.966Z,67.30
2018-03-27T03:18:25.167Z,67.10
2018-03-27T03:20:51.577Z,66.90
2018-03-27T03:23:17.815Z,67.10
2018-03-27T03:25:44.023Z,67.10
2018-03-27T03:28:10.257Z,67.50
2018-03-27T03:30:36.653Z,67.70
2018-03-27T03:33:02.863Z,67.70
2018-03-27T03:35:29.089Z,67.70
2018-03-27T03:37:55.431Z,67.60
2018-03-27T03:40:21.637Z,67.90
2018-03-27T03:42:47.853Z,68.20
2018-03-27T03:45:14.061Z,68.50
2018-03-27T03:47:40.316Z,68.60
2018-03-27T03:50:06.521Z,68.60
2018-03-27T03:52:32.772Z,68.60
2018-03-27T03:54:58.967Z,68.60
2018-03-27T03:57:25.186Z,68.10
2018-03-27T03:59:51.428Z,68.20
2018-03-27T04:02:17.645Z,68.20
2018-03-27T04:04:43.859Z,67.70
2018-03-27T04:07:10.096Z,68.10
2018-03-27T04:09:36.281Z,68.60
2018-03-27T04:12:02.467Z,68.30
2018-03-27T04:14:28.698Z,67.60
2018-03-27T04:16:54.905Z,67.70
2018-03-27T04:19:21.109Z,68.30
2018-03-27T04:21:48.137Z,68.90
2018-03-27T04:24:14.385Z,68.90
2018-03-27T04:26:40.567Z,69.10
2018-03-27T04:29:06.816Z,68.50
2018-03-27T04:31:33.039Z,68.60
2018-03-27T04:33:59.273Z,68.80
2018-03-27T04:36:25.521Z,69.50
2018-03-27T04:38:51.770Z,70.90
2018-03-27T04:41:18.010Z,72.00
2018-03-27T04:43:44.316Z,72.70
2018-03-27T04:46:11.545Z,72.40
2018-03-27T04:48:37.777Z,71.20
2018-03-27T04:51:04.024Z,70.40
2018-03-27T04:53:30.248Z,70.90
2018-03-27T04:55:56.412Z,72.70
2018-03-27T04:58:22.647Z,73.30
2018-03-27T05:00:48.846Z,74.60
2018-03-27T05:03:15.806Z,73.60
2018-03-27T05:05:42.049Z,73.60
2018-03-27T05:08:08.224Z,74.20
2018-03-27T05:10:34.469Z,74.30
2018-03-27T05:13:00.701Z,73.70
2018-03-27T05:15:27.713Z,73.00
2018-03-27T05:17:53.979Z,73.00
2018-03-27T05:20:20.928Z,72.40
2018-03-27T05:22:47.902Z,73.70
2018-03-27T05:25:14.121Z,73.70
2018-03-27T05:27:40.312Z,75.90
2018-03-27T05:30:06.523Z,75.90
2018-03-27T05:32:32.709Z,76.10
2018-03-27T05:34:58.932Z,75.70
2018-03-27T05:37:25.139Z,74.60
2018-03-27T05:39:52.080Z,75.70
2018-03-27T05:42:19.040Z,76.80
2018-03-27T05:44:45.343Z,76.80
2018-03-27T05:47:11.610Z,77.20
2018-03-27T05:49:37.825Z,76.70
2018-03-27T05:52:04.201Z,74.30
2018-03-27T05:54:30.428Z,73.90
2018-03-27T05:56:56.665Z,73.60
2018-03-27T05:59:22.852Z,73.10
2018-03-27T06:01:49.125Z,74.60
2018-03-27T06:04:15.326Z,74.90
2018-03-27T06:06:41.558Z,75.20
2018-03-27T06:09:08.000Z,74.60
2018-03-27T06:11:34.283Z,74.90
2018-03-27T06:14:00.574Z,75.30
2018-03-27T06:16:26.831Z,75.50
2018-03-27T06:18:53.881Z,75.90
2018-03-27T06:21:20.863Z,75.60
2018-03-27T06:23:47.109Z,75.60
2018-03-27T06:26:13.423Z,75.50
2018-03-27T06:28:39.626Z,76.20
2018-03-27T06:31:05.841Z,75.90
2018-03-27T06:33:32.119Z,75.90
2018-03-27T06:35:58.343Z,75.40
2018-03-27T06:38:24.588Z,75.90
2018-03-27T06:40:50.839Z,76.00
2018-03-27T06:43:17.057Z,76.20
2018-03-27T06:45:43.287Z,75.60
2018-03-27T06:48:09.568Z,75.30
2018-03-27T06:50:35.797Z,75.60
2018-03-27T06:53:01.990Z,75.20
2018-03-27T06:55:28.277Z,74.80
2018-03-27T06:57:54.505Z,75.00
2018-03-27T07:00:20.736Z,75.20
2018-03-27T07:02:46.983Z,75.10
2018-03-27T07:05:13.224Z,74.50
2018-03-27T07:07:39.459Z,74.80
2018-03-27T07:10:05.660Z,74.70
2018-03-27T07:12:31.924Z,74.70
2018-03-27T07:14:58.127Z,74.20
2018-03-27T07:17:24.402Z,74.90
2018-03-27T07:19:50.644Z,74.00
2018-03-27T07:22:16.901Z,74.40
2018-03-27T07:24:43.097Z,74.40
2018-03-27T07:27:09.271Z,74.50
2018-03-27T07:29:35.504Z,74.10
2018-03-27T07:32:01.730Z,74.50
2018-03-27T07:34:28.688Z,74.90
2018-03-27T07:36:55.702Z,74.40
2018-03-27T07:39:21.940Z,74.40
2018-03-27T07:41:48.177Z,74.70
2018-03-27T07:44:14.496Z,74.70
2018-03-27T07:46:40.752Z,74.00
2018-03-27T07:49:07.696Z,73.70
2018-03-27T07:51:34.707Z,74.00
2018-03-27T07:54:00.913Z,73.90
2018-03-27T07:56:27.128Z,73.30
2018-03-27T07:58:53.344Z,72.30
2018-03-27T08:01:19.593Z,72.40
2018-03-27T08:03:45.809Z,72.80
2018-03-27T08:06:12.054Z,72.00
2018-03-27T08:08:40.361Z,70.10
2018-03-27T08:11:06.757Z,69.90
2018-03-27T08:13:33.067Z,69.10
2018-03-27T08:16:02.434Z,69.50
2018-03-27T08:18:28.780Z,69.80
2018-03-27T08:21:02.316Z,69.20
2018-03-27T08:23:33.666Z,69.10
2018-03-27T08:26:00.144Z,67.90
2018-03-27T08:28:26.501Z,68.20
2018-03-27T08:30:56.228Z,68.30
2018-03-27T08:33:31.627Z,67.30
2018-03-27T08:35:58.374Z,67.10
2018-03-27T08:38:24.619Z,67.60
2018-03-27T08:40:51.628Z,67.40
2018-03-27T08:43:17.873Z,67.40
2018-03-27T08:45:44.258Z,67.10
2018-03-27T08:48:10.517Z,65.70
2018-03-27T08:50:36.750Z,66.90
2018-03-27T08:53:02.994Z,66.60
2018-03-27T08:55:29.212Z,66.30
2018-03-27T08:57:55.562Z,66.50
2018-03-27T09:00:22.842Z,64.60
2018-03-27T09:02:51.627Z,64.70
2018-03-27T09:05:29.338Z,64.70
2018-03-27T09:07:56.543Z,64.70
2018-03-27T09:10:23.942Z,65.50
2018-03-27T09:12:50.425Z,64.80
2018-03-27T09:15:16.694Z,65.00
2018-03-27T09:17:42.937Z,65.00
2018-03-27T09:20:09.183Z,64.80
2018-03-27T09:22:35.408Z,65.10
2018-03-27T09:25:01.746Z,65.00
2018-03-27T09:27:27.966Z,65.30
2018-03-27T09:29:54.261Z,64.80
2018-03-27T09:32:20.464Z,63.80
2018-03-27T09:34:46.707Z,64.30
2018-03-27T09:37:13.663Z,65.00
2018-03-27T09:39:39.860Z,65.00
2018-03-27T09:42:06.064Z,65.10
2018-03-27T09:44:32.291Z,64.70
2018-03-27T09:46:58.649Z,65.30
2018-03-27T09:49:24.828Z,66.10
2018-03-27T09:51:51.088Z,63.80
2018-03-27T09:54:17.330Z,63.90
2018-03-27T09:56:44.358Z,64.50
2018-03-27T09:59:10.641Z,64.50
2018-03-27T10:01:38.719Z,63.50
2018-03-27T10:04:05.028Z,63.10
2018-03-27T10:06:31.270Z,64.10
2018-03-27T10:08:57.517Z,62.60
2018-03-27T10:11:25.820Z,60.90
2018-03-27T10:13:52.080Z,61.30
2018-03-27T10:16:19.044Z,61.70
2018-03-27T10:18:45.296Z,61.60
2018-03-27T10:21:11.572Z,62.20
2018-03-27T10:23:37.855Z,62.20
2018-03-27T10:26:04.044Z,61.90
2018-03-27T10:28:30.993Z,61.50
2018-03-27T10:30:57.200Z,61.40
2018-03-27T10:33:24.159Z,61.20
2018-03-27T10:35:51.113Z,60.60
2018-03-27T10:38:17.512Z,60.50
2018-03-27T10:40:43.778Z,58.90
2018-03-27T10:43:09.946Z,58.50
2018-03-27T10:45:36.211Z,57.60
2018-03-27T10:48:03.362Z,58.20
2018-03-27T10:50:29.718Z,58.20
2018-03-27T10:52:56.245Z,57.40
2018-03-27T10:55:23.193Z,57.00
2018-03-27T10:57:51.539Z,52.90
2018-03-27T11:00:19.584Z,50.40
2018-03-27T11:02:45.817Z,50.30
2018-03-27T11:05:12.034Z,49.20
2018-03-27T11:07:39.212Z,48.20
2018-03-27T11:10:06.225Z,45.20
2018-03-27T11:12:32.457Z,45.10
2018-03-27T11:14:58.660Z,46.40
2018-03-27T11:17:24.887Z,45.50
2018-03-27T11:19:51.095Z,45.60
2018-03-27T11:22:18.046Z,44.20
2018-03-27T11:24:45.030Z,43.00
2018-03-27T11:27:11.260Z,43.00
2018-03-27T11:29:37.478Z,42.40
2018-03-27T11:32:03.706Z,42.30
2018-03-27T11:34:29.960Z,44.50
2018-03-27T11:36:56.133Z,43.80
2018-03-27T11:39:23.080Z,41.80
2018-03-27T11:41:49.964Z,41.00
2018-03-27T11:44:16.185Z,40.80
2018-03-27T11:46:42.401Z,41.10
2018-03-27T11:49:08.587Z,36.70
2018-03-27T11:51:36.810Z,39.30
2018-03-27T11:54:03.113Z,33.70
2018-03-27T11:56:30.068Z,34.10
2018-03-27T11:58:56.330Z,34.10
2018-03-27T12:01:22.553Z,33.60
2018-03-27T12:03:48.773Z,33.80
2018-03-27T12:06:15.046Z,33.50
2018-03-27T12:08:41.281Z,34.00
2018-03-27T12:11:07.937Z,35.00
2018-03-27T12:13:34.398Z,34.60
2018-03-27T12:16:00.628Z,35.30
2018-03-27T12:18:26.866Z,35.30
2018-03-27T12:20:53.075Z,33.40
2018-03-27T12:23:19.284Z,33.70
2018-03-27T12:25:46.303Z,35.60
2018-03-27T12:28:13.308Z,33.20
2018-03-27T12:30:40.498Z,33.10
2018-03-27T12:33:08.088Z,33.70
2018-03-27T12:35:34.320Z,32.70
2018-03-27T12:38:00.574Z,31.80
2018-03-27T12:40:26.776Z,32.70
2018-03-27T12:42:52.972Z,34.00
2018-03-27T12:45:19.169Z,34.60
2018-03-27T12:47:45.441Z,34.50
2018-03-27T12:50:13.553Z,32.90
2018-03-27T12:52:39.824Z,32.50
2018-03-27T12:55:06.070Z,34.40
2018-03-27T12:57:33.011Z,33.20
2018-03-27T13:00:00.021Z,35.40
2018-03-27T13:02:26.244Z,34.60
2018-03-27T13:04:52.490Z,32.90
2018-03-27T13:07:18.734Z,32.70
2018-03-27T13:09:44.961Z,32.80
2018-03-27T13:12:11.156Z,30.80
2018-03-27T13:14:37.401Z,30.20
2018-03-27T13:19:51.037Z,31.40
2018-03-27T13:22:17.270Z,31.10
2018-03-27T13:24:43.520Z,30.50
2018-03-27T13:27:09.878Z,29.90
2018-03-27T13:29:36.857Z,31.20
2018-03-27T13:32:03.715Z,31.20
2018-03-27T13:34:32.519Z,29.90
2018-03-27T13:37:12.435Z,30.10
2018-03-27T13:39:43.701Z,29.40
2018-03-27T13:42:14.100Z,32.20
2018-03-27T13:44:49.175Z,31.60
2018-03-27T13:47:32.373Z,32.00
2018-03-27T13:50:05.980Z,31.90
2018-03-27T13:52:34.035Z,31.70
2018-03-27T13:57:58.784Z,31.50
2018-03-27T14:00:32.903Z,31.30
2018-03-27T14:03:01.464Z,31.40
2018-03-27T14:05:34.460Z,31.90
2018-03-27T14:08:32.940Z,32.20
2018-03-27T14:14:09.104Z,31.80
2018-03-27T14:16:37.162Z,31.80
2018-03-27T14:19:04.415Z,32.90
2018-03-27T14:24:54.095Z,32.90
2018-03-27T14:27:22.299Z,33.60
2018-03-27T14:33:01.118Z,32.70
2018-03-27T14:35:29.835Z,33.30
2018-03-27T14:37:58.540Z,35.00
2018-03-27T14:40:24.889Z,35.00
2018-03-27T14:42:55.838Z,34.50
2018-03-27T14:47:56.700Z,34.80
2018-03-27T14:56:18.478Z,35.50
2018-03-27T14:58:44.993Z,35.40
2018-03-27T15:01:11.269Z,35.30
2018-03-27T15:03:37.458Z,35.50
2018-03-27T15:06:04.487Z,34.20
2018-03-27T15:08:30.742Z,34.20
2018-03-27T15:10:56.918Z,34.20
2018-03-27T15:13:23.113Z,34.80
2018-03-27T15:15:49.306Z,35.20
2018-03-27T15:18:33.684Z,35.10
2018-03-27T15:20:59.923Z,35.10
2018-03-27T15:23:26.125Z,33.90
2018-03-27T15:25:53.108Z,34.90
2018-03-27T15:28:19.344Z,34.90
2018-03-27T15:30:45.577Z,36.00
2018-03-27T15:33:11.814Z,36.80
2018-03-27T15:35:38.013Z,36.40
2018-03-27T15:38:04.302Z,36.00
2018-03-27T15:40:31.260Z,36.90
2018-03-27T15:42:57.505Z,36.90
2018-03-27T15:45:23.721Z,36.40
2018-03-27T15:47:50.019Z,37.10
2018-03-27T15:50:16.231Z,36.40
2018-03-27T15:52:42.504Z,37.50
2018-03-27T15:55:08.831Z,37.40
2018-03-27T15:57:35.164Z,38.00
2018-03-27T16:00:01.440Z,38.20
2018-03-27T16:02:27.709Z,38.30
2018-03-27T16:04:54.647Z,37.90
2018-03-27T16:07:21.625Z,39.20
2018-03-27T16:09:47.878Z,39.10
2018-03-27T16:12:14.130Z,38.80
2018-03-27T16:14:40.394Z,39.30
2018-03-27T16:17:07.346Z,40.00
2018-03-27T16:19:33.559Z,40.00
2018-03-27T16:22:00.537Z,40.60
2018-03-27T16:24:26.733Z,40.40
2018-03-27T16:26:53.688Z,42.10
2018-03-27T16:29:19.858Z,42.10
2018-03-27T16:31:46.058Z,42.50
2018-03-27T16:34:12.297Z,42.80
2018-03-27T16:36:38.495Z,43.40
2018-03-27T16:39:04.719Z,43.40
2018-03-27T16:41:30.966Z,44.10
2018-03-27T16:43:57.611Z,45.60
2018-03-27T16:46:24.004Z,45.70
2018-03-27T16:48:50.996Z,46.90
2018-03-27T16:51:17.199Z,46.90
2018-03-27T16:53:43.474Z,48.30
2018-03-27T16:56:09.692Z,50.00
2018-03-27T16:58:35.941Z,51.10
2018-03-27T17:01:02.188Z,52.20
2018-03-27T17:03:29.173Z,52.70
2018-03-27T17:05:55.424Z,52.70
2018-03-27T17:08:21.662Z,53.20
2018-03-27T17:10:47.897Z,53.80
2018-03-27T17:13:14.149Z,54.20
2018-03-27T17:15:42.193Z,55.20
2018-03-27T17:18:08.408Z,54.70
2018-03-27T17:20:34.604Z,55.20
2018-03-27T17:23:00.832Z,55.20
2018-03-27T17:25:27.093Z,54.80
2018-03-27T17:27:53.353Z,55.50
2018-03-27T17:30:19.572Z,54.90
2018-03-27T17:32:45.773Z,55.80
2018-03-27T17:35:12.018Z,56.20
2018-03-27T17:37:38.275Z,57.00
2018-03-27T17:40:05.410Z,58.60
2018-03-27T17:42:31.621Z,58.60
2018-03-27T17:44:57.828Z,59.30
2018-03-27T17:47:24.071Z,59.30
2018-03-27T17:49:50.333Z,59.70
2018-03-27T17:52:16.561Z,60.10
2018-03-27T17:54:42.808Z,60.00
2018-03-27T17:57:09.033Z,60.50
2018-03-27T17:59:36.060Z,61.20
2018-03-27T18:02:02.284Z,61.10
2018-03-27T18:04:29.283Z,62.10
2018-03-27T18:06:55.613Z,62.00
2018-03-27T18:09:21.883Z,62.50
2018-03-27T18:11:48.112Z,63.30
2018-03-27T18:14:14.425Z,63.40
2018-03-27T18:16:40.634Z,63.90
2018-03-27T18:19:06.809Z,64.70
2018-03-27T18:21:33.055Z,65.20
2018-03-27T18:24:00.022Z,65.30
2018-03-27T18:26:26.243Z,65.30
2018-03-27T18:28:52.633Z,66.20
2018-03-27T18:31:18.864Z,65.70
2018-03-27T18:33:45.074Z,66.20
2018-03-27T18:36:11.266Z,66.90
2018-03-27T18:38:37.564Z,66.90
2018-03-27T18:41:03.787Z,67.40
2018-03-27T18:43:29.989Z,67.50
2018-03-27T18:45:56.168Z,66.80
2018-03-27T18:48:22.405Z,66.80
2018-03-27T18:50:48.627Z,67.10
2018-03-27T18:53:14.916Z,67.10
2018-03-27T18:55:41.136Z,67.00
2018-03-27T18:58:07.475Z,67.30
2018-03-27T19:00:33.750Z,66.90
2018-03-27T19:03:00.050Z,67.10
2018-03-27T19:05:27.044Z,67.00
2018-03-27T19:07:53.336Z,67.00
2018-03-27T19:10:19.556Z,67.00
2018-03-27T19:12:46.584Z,67.50
2018-03-27T19:15:13.596Z,67.00
2018-03-27T19:17:39.894Z,66.90
2018-03-27T19:20:06.201Z,66.70
2018-03-27T19:22:32.590Z,66.20
2018-03-27T19:24:58.919Z,66.60
2018-03-27T19:27:25.202Z,66.50
2018-03-27T19:29:52.288Z,66.70
2018-03-27T19:32:18.578Z,66.60
2018-03-27T19:34:44.874Z,66.70
2018-03-27T19:37:11.084Z,66.80
2018-03-27T19:39:37.444Z,66.60
2018-03-27T19:42:03.749Z,66.40
2018-03-27T19:44:30.004Z,66.00
2018-03-27T19:46:56.251Z,66.10
2018-03-27T19:49:22.664Z,66.20
2018-03-27T19:51:48.910Z,66.30
2018-03-27T19:54:15.179Z,66.10
2018-03-27T19:56:41.377Z,66.30
2018-03-27T19:59:07.599Z,65.90
2018-03-27T20:01:34.555Z,65.80
2018-03-27T20:04:00.802Z,65.80
2018-03-27T20:06:27.092Z,65.90
2018-03-27T20:08:54.096Z,66.10
2018-03-27T20:11:20.312Z,66.00
2018-03-27T20:13:46.566Z,66.50
2018-03-27T20:16:12.845Z,68.10
2018-03-27T20:18:39.786Z,69.90
2018-03-27T20:21:06.016Z,69.90
2018-03-27T20:23:32.318Z,69.70
2018-03-27T20:25:58.668Z,69.90
2018-03-27T20:28:24.878Z,70.50
2018-03-27T20:30:51.157Z,71.40
2018-03-27T20:33:17.441Z,71.20
2018-03-27T20:35:43.639Z,71.40
2018-03-27T20:38:09.872Z,71.20
2018-03-27T20:40:36.092Z,71.90
2018-03-27T20:43:02.310Z,72.40
2018-03-27T20:45:28.599Z,72.00
2018-03-27T20:47:55.582Z,72.90
2018-03-27T20:50:21.814Z,73.60
2018-03-27T20:52:48.028Z,72.70
2018-03-27T20:55:14.316Z,72.40
2018-03-27T20:57:40.556Z,72.20
2018-03-27T21:00:06.845Z,71.60
2018-03-27T21:02:33.070Z,71.40
2018-03-27T21:05:00.076Z,71.10
2018-03-27T21:07:26.320Z,71.60
2018-03-27T21:09:52.521Z,71.80
2018-03-27T21:12:18.749Z,71.90
2018-03-27T21:14:45.726Z,71.80
2018-03-27T21:37:37.360Z,71.70
2018-03-27T21:40:05.709Z,71.90
2018-03-27T21:42:32.639Z,72.00
2018-03-27T21:44:58.841Z,72.00
2018-03-27T21:47:25.060Z,71.30
2018-03-27T21:49:51.317Z,71.10
2018-03-27T21:52:17.599Z,71.70
2018-03-27T21:54:43.840Z,71.30
2018-03-27T21:57:10.076Z,71.20
2018-03-27T21:59:36.341Z,70.90
2018-03-27T22:02:03.350Z,71.80
2018-03-27T22:04:29.576Z,71.00
2018-03-27T22:06:55.862Z,71.00
2018-03-27T22:09:22.853Z,71.10
2018-03-27T22:11:49.055Z,71.00
2018-03-27T22:14:15.289Z,70.60
2018-03-27T22:16:41.506Z,70.50
2018-03-27T22:19:07.738Z,70.70
2018-03-27T22:21:33.990Z,70.50
2018-03-27T22:24:00.231Z,71.00
2018-03-27T22:26:26.466Z,70.00
2018-03-27T22:28:53.440Z,69.80
2018-03-27T22:31:20.431Z,70.10
2018-03-27T22:33:46.621Z,69.90
2018-03-27T22:36:12.862Z,69.90
2018-03-27T22:38:39.077Z,70.30
2018-03-27T22:41:05.307Z,70.50
2018-03-27T22:43:31.513Z,70.80
2018-03-27T22:45:57.769Z,70.60
2018-03-27T22:48:24.040Z,70.70
2018-03-27T22:50:50.314Z,71.00
2018-03-27T22:53:16.528Z,71.00
2018-03-27T22:55:43.585Z,72.80
2018-03-27T22:58:09.786Z,72.00
2018-03-27T23:00:36.032Z,72.40
2018-03-27T23:03:04.077Z,73.90
2018-03-27T23:05:30.272Z,73.70
2018-03-27T23:07:56.495Z,74.70
2018-03-27T23:10:22.838Z,75.10
2018-03-27T23:12:49.080Z,75.20
2018-03-27T23:15:15.309Z,75.70
2018-03-27T23:17:41.536Z,76.10
2018-03-27T23:20:07.730Z,76.50
2018-03-27T23:22:33.934Z,76.40
2018-03-27T23:25:00.232Z,77.80
2018-03-27T23:27:26.457Z,78.90
2018-03-27T23:29:52.700Z,79.70
2018-03-27T23:32:18.902Z,80.20
2018-03-27T23:34:45.171Z,80.80
2018-03-27T23:37:11.420Z,81.20
2018-03-27T23:39:37.655Z,81.40
2018-03-27T23:42:03.933Z,81.50
2018-03-27T23:44:30.193Z,81.20
2018-03-27T23:46:57.123Z,81.20
2018-03-27T23:49:23.355Z,81.20
2018-03-27T23:51:50.285Z,81.70
2018-03-27T23:54:16.533Z,81.70
2018-03-27T23:56:43.499Z,82.10
2018-03-27T23:59:09.722Z,82.00
